sensor_id;sensor_type;location;lat;lon;timestamp;P1;durP1;ratioP1;P2;durP2;ratioP2
18196;SDS011;9224;52.422;13.024;2022-11-04T00:02:00;8.25;;;7.28;;
18196;SDS011;9224;52.422;13.024;2022-11-04T00:04:27;11.23;;;7.50;;
18196;SDS011;9224;52.422;13.024;2022-11-04T00:06:55;12.18;;;7.10;;
18196;SDS011;9224;52.422;13.024;2022-11-04T00:09:22;8.75;;;6.72;;
18196;SDS011;9224;52.422;13.024;2022-11-04T00:11:50;8.73;;;6.67;;
18196;SDS011;9224;52.422;13.024;2022-11-04T00:14:34;9.43;;;7.68;;
18196;SDS011;9224;52.422;13.024;2022-11-04T00:17:01;9.98;;;7.40;;
18196;SDS011;9224;52.422;13.024;2022-11-04T00:19:46;9.65;;;7.75;;
18196;SDS011;9224;52.422;13.024;2022-11-04T00:22:32;10.30;;;7.53;;
18196;SDS011;9224;52.422;13.024;2022-11-04T00:25:16;10.02;;;7.57;;
18196;SDS011;9224;52.422;13.024;2022-11-04T00:28:01;8.57;;;7.05;;
18196;SDS011;9224;52.422;13.024;2022-11-04T00:30:46;10.85;;;7.68;;
18196;SDS011;9224;52.422;13.024;2022-11-04T00:33:12;9.13;;;7.57;;
18196;SDS011;9224;52.422;13.024;2022-11-04T00:35:50;9.65;;;7.82;;
18196;SDS011;9224;52.422;13.024;2022-11-04T00:38:19;8.87;;;7.97;;
18196;SDS011;9224;52.422;13.024;2022-11-04T00:40:45;9.45;;;7.55;;
18196;SDS011;9224;52.422;13.024;2022-11-04T00:43:13;10.50;;;7.97;;
18196;SDS011;9224;52.422;13.024;2022-11-04T00:45:40;10.18;;;7.63;;
18196;SDS011;9224;52.422;13.024;2022-11-04T00:48:07;10.35;;;8.02;;
18196;SDS011;9224;52.422;13.024;2022-11-04T00:50:34;11.68;;;8.13;;
18196;SDS011;9224;52.422;13.024;2022-11-04T00:53:01;13.25;;;8.45;;
18196;SDS011;9224;52.422;13.024;2022-11-04T00:55:29;11.52;;;8.07;;
18196;SDS011;9224;52.422;13.024;2022-11-04T00:57:56;13.10;;;8.43;;
18196;SDS011;9224;52.422;13.024;2022-11-04T01:00:23;10.93;;;8.02;;
18196;SDS011;9224;52.422;13.024;2022-11-04T01:02:49;11.27;;;8.73;;
18196;SDS011;9224;52.422;13.024;2022-11-04T01:05:16;10.50;;;8.52;;
18196;SDS011;9224;52.422;13.024;2022-11-04T01:07:42;11.40;;;8.75;;
18196;SDS011;9224;52.422;13.024;2022-11-04T01:10:09;11.98;;;8.55;;
18196;SDS011;9224;52.422;13.024;2022-11-04T01:12:36;10.85;;;8.38;;
18196;SDS011;9224;52.422;13.024;2022-11-04T01:15:03;12.90;;;8.35;;
18196;SDS011;9224;52.422;13.024;2022-11-04T01:17:30;12.95;;;9.15;;
18196;SDS011;9224;52.422;13.024;2022-11-04T01:19:57;11.40;;;9.18;;
18196;SDS011;9224;52.422;13.024;2022-11-04T01:22:23;11.18;;;8.65;;
18196;SDS011;9224;52.422;13.024;2022-11-04T01:24:50;10.70;;;8.90;;
18196;SDS011;9224;52.422;13.024;2022-11-04T01:27:17;11.48;;;9.10;;
18196;SDS011;9224;52.422;13.024;2022-11-04T01:29:45;10.90;;;8.90;;
18196;SDS011;9224;52.422;13.024;2022-11-04T01:32:11;11.52;;;8.98;;
18196;SDS011;9224;52.422;13.024;2022-11-04T01:34:37;10.45;;;9.13;;
18196;SDS011;9224;52.422;13.024;2022-11-04T01:37:04;13.10;;;9.40;;
18196;SDS011;9224;52.422;13.024;2022-11-04T01:39:30;10.35;;;8.60;;
18196;SDS011;9224;52.422;13.024;2022-11-04T01:41:57;10.27;;;9.00;;
18196;SDS011;9224;52.422;13.024;2022-11-04T01:44:47;12.05;;;8.85;;
18196;SDS011;9224;52.422;13.024;2022-11-04T01:47:19;12.02;;;9.45;;
18196;SDS011;9224;52.422;13.024;2022-11-04T01:49:48;11.00;;;9.25;;
18196;SDS011;9224;52.422;13.024;2022-11-04T01:52:17;13.10;;;9.67;;
18196;SDS011;9224;52.422;13.024;2022-11-04T01:54:48;11.25;;;9.55;;
18196;SDS011;9224;52.422;13.024;2022-11-04T01:57:17;11.23;;;9.60;;
18196;SDS011;9224;52.422;13.024;2022-11-04T01:59:44;12.15;;;9.80;;
18196;SDS011;9224;52.422;13.024;2022-11-04T02:02:12;12.25;;;10.63;;
18196;SDS011;9224;52.422;13.024;2022-11-04T02:04:39;11.75;;;10.27;;
18196;SDS011;9224;52.422;13.024;2022-11-04T02:07:06;11.38;;;9.23;;
18196;SDS011;9224;52.422;13.024;2022-11-04T02:09:35;11.45;;;9.88;;
18196;SDS011;9224;52.422;13.024;2022-11-04T02:12:03;10.23;;;9.23;;
18196;SDS011;9224;52.422;13.024;2022-11-04T02:14:48;12.20;;;10.37;;
18196;SDS011;9224;52.422;13.024;2022-11-04T02:17:20;12.10;;;9.88;;
18196;SDS011;9224;52.422;13.024;2022-11-04T02:19:58;12.45;;;10.07;;
18196;SDS011;9224;52.422;13.024;2022-11-04T02:22:48;10.75;;;9.35;;
18196;SDS011;9224;52.422;13.024;2022-11-04T02:25:42;12.33;;;10.30;;
18196;SDS011;9224;52.422;13.024;2022-11-04T02:28:26;13.95;;;10.15;;
18196;SDS011;9224;52.422;13.024;2022-11-04T02:31:05;14.48;;;10.30;;
18196;SDS011;9224;52.422;13.024;2022-11-04T02:33:35;12.37;;;10.30;;
18196;SDS011;9224;52.422;13.024;2022-11-04T02:36:07;12.70;;;10.50;;
18196;SDS011;9224;52.422;13.024;2022-11-04T02:38:38;13.75;;;10.88;;
18196;SDS011;9224;52.422;13.024;2022-11-04T02:41:12;13.07;;;10.80;;
18196;SDS011;9224;52.422;13.024;2022-11-04T02:43:44;13.50;;;10.55;;
18196;SDS011;9224;52.422;13.024;2022-11-04T02:46:17;12.80;;;10.48;;
18196;SDS011;9224;52.422;13.024;2022-11-04T02:48:46;11.60;;;10.25;;
18196;SDS011;9224;52.422;13.024;2022-11-04T02:51:15;11.50;;;10.30;;
18196;SDS011;9224;52.422;13.024;2022-11-04T02:53:46;11.88;;;10.15;;
18196;SDS011;9224;52.422;13.024;2022-11-04T02:56:15;12.60;;;10.10;;
18196;SDS011;9224;52.422;13.024;2022-11-04T02:58:45;12.85;;;10.32;;
18196;SDS011;9224;52.422;13.024;2022-11-04T03:01:14;12.20;;;10.55;;
18196;SDS011;9224;52.422;13.024;2022-11-04T03:03:44;11.50;;;9.52;;
18196;SDS011;9224;52.422;13.024;2022-11-04T03:06:13;11.97;;;9.80;;
18196;SDS011;9224;52.422;13.024;2022-11-04T03:08:44;11.27;;;10.00;;
18196;SDS011;9224;52.422;13.024;2022-11-04T03:11:13;13.38;;;10.50;;
18196;SDS011;9224;52.422;13.024;2022-11-04T03:13:41;14.82;;;11.18;;
18196;SDS011;9224;52.422;13.024;2022-11-04T03:16:11;13.52;;;10.77;;
18196;SDS011;9224;52.422;13.024;2022-11-04T03:18:43;14.27;;;10.65;;
18196;SDS011;9224;52.422;13.024;2022-11-04T03:21:15;14.90;;;10.27;;
18196;SDS011;9224;52.422;13.024;2022-11-04T03:23:42;11.43;;;9.85;;
18196;SDS011;9224;52.422;13.024;2022-11-04T03:26:10;13.17;;;10.60;;
18196;SDS011;9224;52.422;13.024;2022-11-04T03:28:41;12.88;;;10.02;;
18196;SDS011;9224;52.422;13.024;2022-11-04T03:31:11;12.40;;;10.43;;
18196;SDS011;9224;52.422;13.024;2022-11-04T03:33:42;11.63;;;10.43;;
18196;SDS011;9224;52.422;13.024;2022-11-04T03:36:29;12.75;;;10.27;;
18196;SDS011;9224;52.422;13.024;2022-11-04T03:39:14;11.68;;;10.48;;
18196;SDS011;9224;52.422;13.024;2022-11-04T03:42:01;13.20;;;10.27;;
18196;SDS011;9224;52.422;13.024;2022-11-04T03:44:44;15.27;;;10.37;;
18196;SDS011;9224;52.422;13.024;2022-11-04T03:47:11;13.05;;;10.82;;
18196;SDS011;9224;52.422;13.024;2022-11-04T03:49:38;14.27;;;10.73;;
18196;SDS011;9224;52.422;13.024;2022-11-04T03:52:05;11.97;;;10.70;;
18196;SDS011;9224;52.422;13.024;2022-11-04T03:54:31;12.33;;;10.97;;
18196;SDS011;9224;52.422;13.024;2022-11-04T03:57:07;12.65;;;10.93;;
18196;SDS011;9224;52.422;13.024;2022-11-04T04:02:31;12.15;;;10.60;;
18196;SDS011;9224;52.422;13.024;2022-11-04T04:05:05;12.43;;;11.13;;
18196;SDS011;9224;52.422;13.024;2022-11-04T04:07:36;14.82;;;11.15;;
18196;SDS011;9224;52.422;13.024;2022-11-04T04:10:06;12.70;;;11.35;;
18196;SDS011;9224;52.422;13.024;2022-11-04T04:12:51;12.82;;;11.30;;
18196;SDS011;9224;52.422;13.024;2022-11-04T04:15:22;12.30;;;11.03;;
18196;SDS011;9224;52.422;13.024;2022-11-04T04:17:52;13.97;;;11.37;;
18196;SDS011;9224;52.422;13.024;2022-11-04T04:20:22;14.13;;;11.30;;
18196;SDS011;9224;52.422;13.024;2022-11-04T04:22:52;13.15;;;11.40;;
18196;SDS011;9224;52.422;13.024;2022-11-04T04:25:20;12.60;;;11.30;;
18196;SDS011;9224;52.422;13.024;2022-11-04T04:28:05;12.57;;;11.27;;
18196;SDS011;9224;52.422;13.024;2022-11-04T04:30:32;14.48;;;12.15;;
18196;SDS011;9224;52.422;13.024;2022-11-04T04:33:00;14.48;;;11.82;;
18196;SDS011;9224;52.422;13.024;2022-11-04T04:35:32;13.57;;;12.10;;
18196;SDS011;9224;52.422;13.024;2022-11-04T04:38:11;13.90;;;12.20;;
18196;SDS011;9224;52.422;13.024;2022-11-04T04:41:00;13.95;;;12.48;;
18196;SDS011;9224;52.422;13.024;2022-11-04T04:43:46;14.45;;;12.73;;
18196;SDS011;9224;52.422;13.024;2022-11-04T04:46:31;14.13;;;12.57;;
18196;SDS011;9224;52.422;13.024;2022-11-04T04:49:02;14.10;;;12.10;;
18196;SDS011;9224;52.422;13.024;2022-11-04T04:51:31;14.65;;;11.95;;
18196;SDS011;9224;52.422;13.024;2022-11-04T04:53:57;14.13;;;12.20;;
18196;SDS011;9224;52.422;13.024;2022-11-04T04:56:24;14.07;;;12.60;;
18196;SDS011;9224;52.422;13.024;2022-11-04T04:58:50;13.63;;;12.23;;
18196;SDS011;9224;52.422;13.024;2022-11-04T05:01:17;14.13;;;12.05;;
18196;SDS011;9224;52.422;13.024;2022-11-04T05:03:43;16.80;;;12.65;;
18196;SDS011;9224;52.422;13.024;2022-11-04T05:06:10;14.55;;;12.75;;
18196;SDS011;9224;52.422;13.024;2022-11-04T05:08:37;14.25;;;12.75;;
18196;SDS011;9224;52.422;13.024;2022-11-04T05:11:04;15.93;;;12.57;;
18196;SDS011;9224;52.422;13.024;2022-11-04T05:13:30;15.15;;;13.05;;
18196;SDS011;9224;52.422;13.024;2022-11-04T05:16:01;16.35;;;12.73;;
18196;SDS011;9224;52.422;13.024;2022-11-04T05:18:28;15.30;;;13.70;;
18196;SDS011;9224;52.422;13.024;2022-11-04T05:20:55;16.83;;;13.47;;
18196;SDS011;9224;52.422;13.024;2022-11-04T05:23:22;14.80;;;13.07;;
18196;SDS011;9224;52.422;13.024;2022-11-04T05:25:49;16.63;;;13.57;;
18196;SDS011;9224;52.422;13.024;2022-11-04T05:28:16;15.13;;;12.85;;
18196;SDS011;9224;52.422;13.024;2022-11-04T05:30:43;14.65;;;13.10;;
18196;SDS011;9224;52.422;13.024;2022-11-04T05:33:09;14.77;;;13.18;;
18196;SDS011;9224;52.422;13.024;2022-11-04T05:35:35;14.57;;;13.07;;
18196;SDS011;9224;52.422;13.024;2022-11-04T05:38:02;14.77;;;13.27;;
18196;SDS011;9224;52.422;13.024;2022-11-04T05:40:28;14.70;;;13.23;;
18196;SDS011;9224;52.422;13.024;2022-11-04T05:42:57;16.10;;;13.82;;
18196;SDS011;9224;52.422;13.024;2022-11-04T05:45:24;15.68;;;13.98;;
18196;SDS011;9224;52.422;13.024;2022-11-04T05:47:55;16.85;;;14.93;;
18196;SDS011;9224;52.422;13.024;2022-11-04T05:50:22;17.55;;;14.63;;
18196;SDS011;9224;52.422;13.024;2022-11-04T05:52:49;16.13;;;14.32;;
18196;SDS011;9224;52.422;13.024;2022-11-04T05:55:15;17.70;;;14.98;;
18196;SDS011;9224;52.422;13.024;2022-11-04T05:57:42;16.75;;;14.63;;
18196;SDS011;9224;52.422;13.024;2022-11-04T06:00:11;17.75;;;15.07;;
18196;SDS011;9224;52.422;13.024;2022-11-04T06:02:38;16.65;;;14.95;;
18196;SDS011;9224;52.422;13.024;2022-11-04T06:05:05;17.13;;;14.70;;
18196;SDS011;9224;52.422;13.024;2022-11-04T06:07:33;16.50;;;14.32;;
18196;SDS011;9224;52.422;13.024;2022-11-04T06:09:59;17.73;;;15.18;;
18196;SDS011;9224;52.422;13.024;2022-11-04T06:12:26;19.35;;;15.65;;
18196;SDS011;9224;52.422;13.024;2022-11-04T06:14:52;17.98;;;15.40;;
18196;SDS011;9224;52.422;13.024;2022-11-04T06:17:20;18.42;;;16.02;;
18196;SDS011;9224;52.422;13.024;2022-11-04T06:19:47;20.35;;;16.00;;
18196;SDS011;9224;52.422;13.024;2022-11-04T06:22:14;16.92;;;15.07;;
18196;SDS011;9224;52.422;13.024;2022-11-04T06:24:42;19.38;;;15.27;;
18196;SDS011;9224;52.422;13.024;2022-11-04T06:27:09;17.92;;;15.73;;
18196;SDS011;9224;52.422;13.024;2022-11-04T06:29:36;17.73;;;15.73;;
18196;SDS011;9224;52.422;13.024;2022-11-04T06:32:05;18.08;;;15.93;;
18196;SDS011;9224;52.422;13.024;2022-11-04T06:34:32;19.75;;;16.23;;
18196;SDS011;9224;52.422;13.024;2022-11-04T06:36:59;22.08;;;16.25;;
18196;SDS011;9224;52.422;13.024;2022-11-04T06:39:25;19.85;;;16.73;;
18196;SDS011;9224;52.422;13.024;2022-11-04T06:41:52;19.48;;;16.00;;
18196;SDS011;9224;52.422;13.024;2022-11-04T06:44:18;19.95;;;15.73;;
18196;SDS011;9224;52.422;13.024;2022-11-04T06:46:45;18.98;;;16.67;;
18196;SDS011;9224;52.422;13.024;2022-11-04T06:49:12;20.42;;;16.15;;
18196;SDS011;9224;52.422;13.024;2022-11-04T06:51:41;27.35;;;17.10;;
18196;SDS011;9224;52.422;13.024;2022-11-04T06:54:07;20.33;;;16.30;;
18196;SDS011;9224;52.422;13.024;2022-11-04T06:56:34;20.27;;;16.23;;
18196;SDS011;9224;52.422;13.024;2022-11-04T06:59:01;22.05;;;16.98;;
18196;SDS011;9224;52.422;13.024;2022-11-04T07:01:28;19.85;;;17.15;;
18196;SDS011;9224;52.422;13.024;2022-11-04T07:03:56;19.77;;;16.90;;
18196;SDS011;9224;52.422;13.024;2022-11-04T07:06:23;23.47;;;17.13;;
18196;SDS011;9224;52.422;13.024;2022-11-04T07:08:52;20.20;;;16.90;;
18196;SDS011;9224;52.422;13.024;2022-11-04T07:11:19;20.40;;;17.25;;
18196;SDS011;9224;52.422;13.024;2022-11-04T07:13:46;21.03;;;16.90;;
18196;SDS011;9224;52.422;13.024;2022-11-04T07:16:14;22.63;;;16.80;;
18196;SDS011;9224;52.422;13.024;2022-11-04T07:18:40;21.83;;;16.40;;
18196;SDS011;9224;52.422;13.024;2022-11-04T07:21:07;22.30;;;17.13;;
18196;SDS011;9224;52.422;13.024;2022-11-04T07:23:34;20.95;;;17.00;;
18196;SDS011;9224;52.422;13.024;2022-11-04T07:26:03;19.63;;;16.70;;
18196;SDS011;9224;52.422;13.024;2022-11-04T07:28:30;21.35;;;16.50;;
18196;SDS011;9224;52.422;13.024;2022-11-04T07:30:57;19.27;;;16.65;;
18196;SDS011;9224;52.422;13.024;2022-11-04T07:33:24;21.50;;;16.38;;
18196;SDS011;9224;52.422;13.024;2022-11-04T07:35:51;23.02;;;16.58;;
18196;SDS011;9224;52.422;13.024;2022-11-04T07:38:18;22.10;;;16.10;;
18196;SDS011;9224;52.422;13.024;2022-11-04T07:40:44;20.08;;;16.23;;
18196;SDS011;9224;52.422;13.024;2022-11-04T07:43:12;21.48;;;15.90;;
18196;SDS011;9224;52.422;13.024;2022-11-04T07:45:39;19.38;;;16.23;;
18196;SDS011;9224;52.422;13.024;2022-11-04T07:48:05;19.35;;;16.02;;
18196;SDS011;9224;52.422;13.024;2022-11-04T07:50:32;22.48;;;17.00;;
18196;SDS011;9224;52.422;13.024;2022-11-04T07:52:58;20.05;;;16.45;;
18196;SDS011;9224;52.422;13.024;2022-11-04T07:55:25;20.40;;;16.17;;
18196;SDS011;9224;52.422;13.024;2022-11-04T07:57:53;21.45;;;16.42;;
18196;SDS011;9224;52.422;13.024;2022-11-04T08:00:21;19.23;;;15.80;;
18196;SDS011;9224;52.422;13.024;2022-11-04T08:02:47;21.77;;;16.00;;
18196;SDS011;9224;52.422;13.024;2022-11-04T08:05:14;21.42;;;16.52;;
18196;SDS011;9224;52.422;13.024;2022-11-04T08:07:41;19.47;;;16.10;;
18196;SDS011;9224;52.422;13.024;2022-11-04T08:10:08;20.42;;;15.90;;
18196;SDS011;9224;52.422;13.024;2022-11-04T08:12:35;21.92;;;16.45;;
18196;SDS011;9224;52.422;13.024;2022-11-04T08:15:03;20.33;;;15.95;;
18196;SDS011;9224;52.422;13.024;2022-11-04T08:17:31;24.13;;;16.60;;
18196;SDS011;9224;52.422;13.024;2022-11-04T08:19:58;22.07;;;16.73;;
18196;SDS011;9224;52.422;13.024;2022-11-04T08:22:24;20.97;;;16.80;;
18196;SDS011;9224;52.422;13.024;2022-11-04T08:24:51;21.83;;;17.47;;
18196;SDS011;9224;52.422;13.024;2022-11-04T08:27:17;22.17;;;16.27;;
18196;SDS011;9224;52.422;13.024;2022-11-04T08:29:44;22.15;;;16.90;;
18196;SDS011;9224;52.422;13.024;2022-11-04T08:32:10;20.52;;;16.60;;
18196;SDS011;9224;52.422;13.024;2022-11-04T08:34:38;23.15;;;16.08;;
18196;SDS011;9224;52.422;13.024;2022-11-04T08:37:06;20.40;;;15.10;;
18196;SDS011;9224;52.422;13.024;2022-11-04T08:39:32;18.35;;;14.60;;
18196;SDS011;9224;52.422;13.024;2022-11-04T08:41:59;17.53;;;13.77;;
18196;SDS011;9224;52.422;13.024;2022-11-04T08:44:26;19.27;;;14.17;;
18196;SDS011;9224;52.422;13.024;2022-11-04T08:46:52;19.00;;;14.20;;
18196;SDS011;9224;52.422;13.024;2022-11-04T08:49:18;15.15;;;13.18;;
18196;SDS011;9224;52.422;13.024;2022-11-04T08:51:46;19.42;;;13.93;;
18196;SDS011;9224;52.422;13.024;2022-11-04T08:54:21;17.17;;;13.40;;
18196;SDS011;9224;52.422;13.024;2022-11-04T08:56:48;15.38;;;12.70;;
18196;SDS011;9224;52.422;13.024;2022-11-04T08:59:14;13.80;;;12.10;;
18196;SDS011;9224;52.422;13.024;2022-11-04T09:01:41;16.77;;;12.60;;
18196;SDS011;9224;52.422;13.024;2022-11-04T09:04:08;15.67;;;12.50;;
18196;SDS011;9224;52.422;13.024;2022-11-04T09:06:36;14.52;;;12.45;;
18196;SDS011;9224;52.422;13.024;2022-11-04T09:09:06;13.48;;;12.05;;
18196;SDS011;9224;52.422;13.024;2022-11-04T09:11:37;14.18;;;11.48;;
18196;SDS011;9224;52.422;13.024;2022-11-04T09:14:05;13.25;;;11.63;;
18196;SDS011;9224;52.422;13.024;2022-11-04T09:16:33;15.15;;;11.38;;
18196;SDS011;9224;52.422;13.024;2022-11-04T09:19:00;12.52;;;11.07;;
18196;SDS011;9224;52.422;13.024;2022-11-04T09:21:26;13.27;;;10.93;;
18196;SDS011;9224;52.422;13.024;2022-11-04T09:23:53;11.75;;;10.32;;
18196;SDS011;9224;52.422;13.024;2022-11-04T09:26:22;12.50;;;10.70;;
18196;SDS011;9224;52.422;13.024;2022-11-04T09:28:52;13.73;;;11.23;;
18196;SDS011;9224;52.422;13.024;2022-11-04T09:31:19;12.55;;;11.00;;
18196;SDS011;9224;52.422;13.024;2022-11-04T09:33:45;13.35;;;11.00;;
18196;SDS011;9224;52.422;13.024;2022-11-04T09:36:12;11.82;;;10.48;;
18196;SDS011;9224;52.422;13.024;2022-11-04T09:38:39;13.82;;;11.23;;
18196;SDS011;9224;52.422;13.024;2022-11-04T09:41:20;12.40;;;11.10;;
18196;SDS011;9224;52.422;13.024;2022-11-04T09:43:57;12.27;;;10.90;;
18196;SDS011;9224;52.422;13.024;2022-11-04T09:46:27;12.00;;;10.70;;
18196;SDS011;9224;52.422;13.024;2022-11-04T09:48:56;11.85;;;10.65;;
18196;SDS011;9224;52.422;13.024;2022-11-04T09:51:23;11.00;;;9.77;;
18196;SDS011;9224;52.422;13.024;2022-11-04T09:53:51;12.93;;;10.98;;
18196;SDS011;9224;52.422;13.024;2022-11-04T09:56:22;10.95;;;9.75;;
18196;SDS011;9224;52.422;13.024;2022-11-04T09:58:52;10.77;;;9.75;;
18196;SDS011;9224;52.422;13.024;2022-11-04T10:01:20;11.85;;;9.88;;
18196;SDS011;9224;52.422;13.024;2022-11-04T10:03:57;11.10;;;9.90;;
18196;SDS011;9224;52.422;13.024;2022-11-04T10:06:32;10.85;;;9.45;;
18196;SDS011;9224;52.422;13.024;2022-11-04T10:09:05;10.60;;;9.50;;
18196;SDS011;9224;52.422;13.024;2022-11-04T10:11:39;9.30;;;8.40;;
18196;SDS011;9224;52.422;13.024;2022-11-04T10:14:17;9.50;;;8.60;;
18196;SDS011;9224;52.422;13.024;2022-11-04T10:16:58;9.38;;;8.48;;
18196;SDS011;9224;52.422;13.024;2022-11-04T10:19:32;9.00;;;8.10;;
18196;SDS011;9224;52.422;13.024;2022-11-04T10:22:06;9.23;;;8.27;;
18196;SDS011;9224;52.422;13.024;2022-11-04T10:24:39;9.13;;;8.23;;
18196;SDS011;9224;52.422;13.024;2022-11-04T10:27:11;9.55;;;8.60;;
18196;SDS011;9224;52.422;13.024;2022-11-04T10:29:41;9.25;;;8.35;;
18196;SDS011;9224;52.422;13.024;2022-11-04T10:32:11;9.27;;;8.38;;
18196;SDS011;9224;52.422;13.024;2022-11-04T10:34:40;9.73;;;8.73;;
18196;SDS011;9224;52.422;13.024;2022-11-04T10:37:10;9.30;;;8.32;;
18196;SDS011;9224;52.422;13.024;2022-11-04T10:39:38;9.27;;;8.48;;
18196;SDS011;9224;52.422;13.024;2022-11-04T10:42:08;9.38;;;8.13;;
18196;SDS011;9224;52.422;13.024;2022-11-04T10:44:35;9.00;;;8.18;;
18196;SDS011;9224;52.422;13.024;2022-11-04T10:47:05;9.25;;;8.32;;
18196;SDS011;9224;52.422;13.024;2022-11-04T10:49:53;9.00;;;8.00;;
18196;SDS011;9224;52.422;13.024;2022-11-04T10:52:24;8.82;;;8.00;;
18196;SDS011;9224;52.422;13.024;2022-11-04T10:54:50;9.23;;;8.32;;
18196;SDS011;9224;52.422;13.024;2022-11-04T10:57:18;10.02;;;8.98;;
18196;SDS011;9224;52.422;13.024;2022-11-04T10:59:51;10.07;;;9.10;;
18196;SDS011;9224;52.422;13.024;2022-11-04T11:02:24;10.25;;;9.25;;
18196;SDS011;9224;52.422;13.024;2022-11-04T11:05:12;9.50;;;8.53;;
18196;SDS011;9224;52.422;13.024;2022-11-04T11:07:41;9.98;;;9.05;;
18196;SDS011;9224;52.422;13.024;2022-11-04T11:10:14;9.98;;;8.98;;
18196;SDS011;9224;52.422;13.024;2022-11-04T11:12:42;10.02;;;9.13;;
18196;SDS011;9224;52.422;13.024;2022-11-04T11:15:17;10.00;;;8.80;;
18196;SDS011;9224;52.422;13.024;2022-11-04T11:17:51;10.15;;;9.07;;
18196;SDS011;9224;52.422;13.024;2022-11-04T11:20:18;10.20;;;9.20;;
18196;SDS011;9224;52.422;13.024;2022-11-04T11:22:46;11.07;;;9.13;;
18196;SDS011;9224;52.422;13.024;2022-11-04T11:25:22;9.73;;;8.77;;
18196;SDS011;9224;52.422;13.024;2022-11-04T11:27:51;9.77;;;8.82;;
18196;SDS011;9224;52.422;13.024;2022-11-04T11:30:24;10.30;;;9.30;;
18196;SDS011;9224;52.422;13.024;2022-11-04T11:32:54;9.70;;;8.77;;
18196;SDS011;9224;52.422;13.024;2022-11-04T11:35:24;9.50;;;8.60;;
18196;SDS011;9224;52.422;13.024;2022-11-04T11:37:52;9.05;;;8.25;;
18196;SDS011;9224;52.422;13.024;2022-11-04T11:40:23;8.73;;;7.95;;
18196;SDS011;9224;52.422;13.024;2022-11-04T11:42:51;9.30;;;8.43;;
18196;SDS011;9224;52.422;13.024;2022-11-04T11:45:17;9.90;;;8.32;;
18196;SDS011;9224;52.422;13.024;2022-11-04T11:47:45;8.85;;;7.93;;
18196;SDS011;9224;52.422;13.024;2022-11-04T11:50:20;8.85;;;8.05;;
18196;SDS011;9224;52.422;13.024;2022-11-04T11:52:50;8.93;;;8.00;;
18196;SDS011;9224;52.422;13.024;2022-11-04T11:55:19;8.82;;;8.02;;
18196;SDS011;9224;52.422;13.024;2022-11-04T11:57:51;8.80;;;8.00;;
18196;SDS011;9224;52.422;13.024;2022-11-04T12:00:24;10.43;;;8.70;;
18196;SDS011;9224;52.422;13.024;2022-11-04T12:02:57;9.40;;;8.40;;
18196;SDS011;9224;52.422;13.024;2022-11-04T12:05:29;9.35;;;8.45;;
18196;SDS011;9224;52.422;13.024;2022-11-04T12:08:02;9.05;;;8.15;;
18196;SDS011;9224;52.422;13.024;2022-11-04T12:10:40;9.07;;;8.18;;
18196;SDS011;9224;52.422;13.024;2022-11-04T12:13:12;9.68;;;7.88;;
18196;SDS011;9224;52.422;13.024;2022-11-04T12:15:44;8.60;;;7.85;;
18196;SDS011;9224;52.422;13.024;2022-11-04T12:18:25;9.13;;;8.13;;
18196;SDS011;9224;52.422;13.024;2022-11-04T12:21:02;9.35;;;8.55;;
18196;SDS011;9224;52.422;13.024;2022-11-04T12:23:35;9.40;;;8.50;;
18196;SDS011;9224;52.422;13.024;2022-11-04T12:26:09;9.57;;;8.57;;
18196;SDS011;9224;52.422;13.024;2022-11-04T12:28:43;9.23;;;8.30;;
18196;SDS011;9224;52.422;13.024;2022-11-04T12:31:20;9.07;;;8.20;;
18196;SDS011;9224;52.422;13.024;2022-11-04T12:33:53;9.10;;;8.23;;
18196;SDS011;9224;52.422;13.024;2022-11-04T12:36:29;9.25;;;7.93;;
18196;SDS011;9224;52.422;13.024;2022-11-04T12:39:09;9.45;;;8.55;;
18196;SDS011;9224;52.422;13.024;2022-11-04T12:41:46;68.07;;;42.05;;
18196;SDS011;9224;52.422;13.024;2022-11-04T12:44:22;27.60;;;19.65;;
18196;SDS011;9224;52.422;13.024;2022-11-04T12:46:55;10.23;;;9.23;;
18196;SDS011;9224;52.422;13.024;2022-11-04T12:49:37;8.45;;;7.65;;
18196;SDS011;9224;52.422;13.024;2022-11-04T12:52:14;9.10;;;8.18;;
18196;SDS011;9224;52.422;13.024;2022-11-04T12:54:51;9.48;;;8.57;;
18196;SDS011;9224;52.422;13.024;2022-11-04T12:57:27;10.17;;;9.17;;
18196;SDS011;9224;52.422;13.024;2022-11-04T13:02:49;9.00;;;8.10;;
18196;SDS011;9224;52.422;13.024;2022-11-04T13:08:07;9.35;;;8.38;;
18196;SDS011;9224;52.422;13.024;2022-11-04T13:10:38;9.35;;;8.45;;
18196;SDS011;9224;52.422;13.024;2022-11-04T13:13:08;9.60;;;8.65;;
18196;SDS011;9224;52.422;13.024;2022-11-04T13:15:39;9.30;;;8.40;;
18196;SDS011;9224;52.422;13.024;2022-11-04T13:18:11;9.00;;;7.88;;
18196;SDS011;9224;52.422;13.024;2022-11-04T13:20:43;8.98;;;8.05;;
18196;SDS011;9224;52.422;13.024;2022-11-04T13:23:15;8.93;;;8.13;;
18196;SDS011;9224;52.422;13.024;2022-11-04T13:25:43;8.90;;;8.00;;
18196;SDS011;9224;52.422;13.024;2022-11-04T13:28:12;8.23;;;7.53;;
18196;SDS011;9224;52.422;13.024;2022-11-04T13:30:42;8.75;;;7.95;;
18196;SDS011;9224;52.422;13.024;2022-11-04T13:33:13;9.88;;;8.40;;
18196;SDS011;9224;52.422;13.024;2022-11-04T13:35:48;9.07;;;8.20;;
18196;SDS011;9224;52.422;13.024;2022-11-04T13:38:23;8.98;;;8.07;;
18196;SDS011;9224;52.422;13.024;2022-11-04T13:40:57;9.00;;;8.10;;
18196;SDS011;9224;52.422;13.024;2022-11-04T13:43:30;10.15;;;8.40;;
18196;SDS011;9224;52.422;13.024;2022-11-04T13:46:04;10.10;;;8.93;;
18196;SDS011;9224;52.422;13.024;2022-11-04T13:48:48;10.57;;;9.30;;
18196;SDS011;9224;52.422;13.024;2022-11-04T13:51:18;10.00;;;9.00;;
18196;SDS011;9224;52.422;13.024;2022-11-04T13:53:46;10.20;;;9.25;;
18196;SDS011;9224;52.422;13.024;2022-11-04T13:56:27;10.23;;;9.20;;
18196;SDS011;9224;52.422;13.024;2022-11-04T13:58:56;10.52;;;9.50;;
18196;SDS011;9224;52.422;13.024;2022-11-04T14:01:25;10.40;;;9.50;;
18196;SDS011;9224;52.422;13.024;2022-11-04T14:03:53;10.75;;;9.75;;
18196;SDS011;9224;52.422;13.024;2022-11-04T14:09:35;10.80;;;9.77;;
18196;SDS011;9224;52.422;13.024;2022-11-04T14:12:24;12.07;;;10.77;;
18196;SDS011;9224;52.422;13.024;2022-11-04T14:17:57;11.70;;;10.60;;
18196;SDS011;9224;52.422;13.024;2022-11-04T14:20:25;11.02;;;9.90;;
18196;SDS011;9224;52.422;13.024;2022-11-04T14:22:55;11.43;;;10.32;;
18196;SDS011;9224;52.422;13.024;2022-11-04T14:25:28;10.63;;;9.63;;
18196;SDS011;9224;52.422;13.024;2022-11-04T14:27:57;11.57;;;10.57;;
18196;SDS011;9224;52.422;13.024;2022-11-04T14:30:26;11.32;;;10.23;;
18196;SDS011;9224;52.422;13.024;2022-11-04T14:33:17;12.27;;;11.07;;
18196;SDS011;9224;52.422;13.024;2022-11-04T14:35:47;12.65;;;11.35;;
18196;SDS011;9224;52.422;13.024;2022-11-04T14:38:19;11.35;;;10.15;;
18196;SDS011;9224;52.422;13.024;2022-11-04T14:40:51;11.73;;;10.07;;
18196;SDS011;9224;52.422;13.024;2022-11-04T14:43:38;10.52;;;9.52;;
18196;SDS011;9224;52.422;13.024;2022-11-04T14:46:07;11.52;;;10.35;;
18196;SDS011;9224;52.422;13.024;2022-11-04T14:48:34;11.55;;;10.38;;
18196;SDS011;9224;52.422;13.024;2022-11-04T14:51:00;11.43;;;10.23;;
18196;SDS011;9224;52.422;13.024;2022-11-04T14:53:29;11.20;;;10.30;;
18196;SDS011;9224;52.422;13.024;2022-11-04T14:56:09;10.70;;;9.70;;
18196;SDS011;9224;52.422;13.024;2022-11-04T14:58:48;11.73;;;10.05;;
18196;SDS011;9224;52.422;13.024;2022-11-04T15:01:17;10.30;;;9.35;;
18196;SDS011;9224;52.422;13.024;2022-11-04T15:03:44;11.45;;;10.15;;
18196;SDS011;9224;52.422;13.024;2022-11-04T15:06:11;10.60;;;9.50;;